Airfield :
LOGIN :

Register | Disclaimer

   EN    FR    IT 

 










Legend :    VFR   Marginal VFR   IFR   Intensive IFR   Very Intensive IFR
Visi :
Ceiling :
>= 8 km
>= 3000ft
5 to 8 km
1000 to 3000 ft
1500m to 5 km
500 to 1000 ft
800 to 1500m
200 to 500 ft
< 800m
< 200 ft
Symbols :   Thunderstorms  Fog  Heavy snow  Heavy precipitations  Wind > 20 kt
SIGMETs :     Misc.  Thunderstorms  Icing  Turbulence  Mountain Waves  Volcanic Ashes







- Airport Elevation : 74 ft
- IATA code : EIN


EHEH - Eindhoven

CURRENT METAR :
  • 201925Z AUTO 36003KT 310V040 9999 OVC130 M03/M06 Q1021 BLU VRB03KT CAVOK

EXPIRED METARs :
  • 201910Z AUTO 36003KT 230V360 9999 OVC130 M03/M06 Q1021 BLU VRB03KT CAVOK
  • 201855Z AUTO 02004KT 9999 OVC130 M03/M05 Q1020 BLU 06004KT CAVOK
  • 201825Z AUTO 04002KT 9999 NCD M01/M05 Q1020 BLU 06004KT CAVOK
  • 201755Z AUTO 07003KT 9999 NCD M02/M06 Q1020 BLU 06004KT CAVOK
  • 201725Z AUTO 07003KT 020V120 9999 NCD M02/M06 Q1019 BLU 06004KT CAVOK
  • 201655Z AUTO 06003KT 010V100 9999 NCD M01/M06 Q1019 BLU 06005KT CAVOK

TAF TAF EHEH
Valid from the 20 at 18:00 until the 22 at 00:00 UTC


201729Z 2018/2124 06003KT CAVOK
PROB30 2101/2109 1500 MIFG
BECMG 2109/2112 22005KT
No reported NOTAMs for that airfield.



MET'MAP, your aeronautical weather chart ! - Copyright ORBIFLY December 2007 - Disclaimer

ORBIFLY MET'MAP TEAM :

Programming & Development : Alexandra Zaïnal
Concept & Development : Baudouin d'Aumeries
Co-Development & Prog : Marc-Olivier Méhu
Technical & hardware support : Manuel Goepfert

Contact : metmap@orbifly.com




SOURCES & CREDITS :

   NOAA